createdAt,value
2018-12-22T00:02:44.617Z,11.20
2018-12-22T00:05:48.059Z,11.22
2018-12-22T00:08:51.667Z,11.19
2018-12-22T00:11:55.300Z,11.19
2018-12-22T00:14:58.856Z,11.21
2018-12-22T00:18:02.274Z,11.22
2018-12-22T00:21:05.770Z,11.16
2018-12-22T00:24:09.263Z,11.22
2018-12-22T00:27:12.783Z,11.20
2018-12-22T00:30:16.309Z,11.21
2018-12-22T00:33:19.931Z,11.19
2018-12-22T00:36:23.405Z,11.23
2018-12-22T00:39:26.995Z,11.23
2018-12-22T00:42:30.506Z,11.24
2018-12-22T00:45:34.107Z,11.21
2018-12-22T00:48:37.704Z,11.24
2018-12-22T00:51:41.194Z,11.25
2018-12-22T00:54:44.724Z,11.22
2018-12-22T00:57:48.312Z,11.18
2018-12-22T01:00:51.837Z,11.17
2018-12-22T01:03:55.477Z,11.14
2018-12-22T01:06:59.079Z,11.15
2018-12-22T01:10:03.712Z,11.18
2018-12-22T01:13:07.331Z,11.14
2018-12-22T01:16:10.780Z,11.23
2018-12-22T01:19:14.289Z,11.20
2018-12-22T01:22:17.790Z,11.18
2018-12-22T01:25:21.435Z,11.20
2018-12-22T01:28:24.983Z,11.20
2018-12-22T01:31:28.421Z,11.24
2018-12-22T01:34:32.098Z,11.22
2018-12-22T01:37:35.652Z,11.30
2018-12-22T01:40:39.184Z,11.24
2018-12-22T01:43:42.625Z,11.21
2018-12-22T01:46:46.211Z,11.22
2018-12-22T01:49:49.706Z,11.24
2018-12-22T01:52:53.274Z,11.26
2018-12-22T01:55:56.814Z,11.25
2018-12-22T01:59:00.343Z,11.29
2018-12-22T02:02:03.983Z,11.29
2018-12-22T02:05:07.538Z,11.33
2018-12-22T02:08:10.970Z,11.29
2018-12-22T02:11:14.505Z,11.29
2018-12-22T02:14:18.006Z,11.25
2018-12-22T02:17:21.569Z,11.35
2018-12-22T02:20:25.157Z,11.34
2018-12-22T02:23:28.678Z,11.31
2018-12-22T02:26:32.248Z,11.33
2018-12-22T02:29:35.754Z,11.35
2018-12-22T02:32:39.185Z,11.33
2018-12-22T02:35:42.767Z,11.34
2018-12-22T02:38:46.148Z,11.41
2018-12-22T02:41:49.656Z,11.44
2018-12-22T02:44:53.155Z,11.40
2018-12-22T02:47:56.695Z,11.46
2018-12-22T02:51:00.181Z,11.45
2018-12-22T02:54:03.654Z,11.48
2018-12-22T02:57:07.078Z,11.48
2018-12-22T03:00:11.426Z,11.47
2018-12-22T03:03:14.988Z,11.38
2018-12-22T03:06:18.499Z,11.42
2018-12-22T03:09:23.015Z,11.42
2018-12-22T03:12:26.457Z,11.39
2018-12-22T03:15:29.962Z,11.31
2018-12-22T03:18:33.414Z,11.32
2018-12-22T03:21:36.880Z,11.32
2018-12-22T03:24:40.425Z,11.33
2018-12-22T03:27:43.944Z,11.26
2018-12-22T03:30:47.468Z,11.24
2018-12-22T03:33:50.934Z,11.21
2018-12-22T03:36:54.435Z,11.19
2018-12-22T03:39:57.938Z,11.15
2018-12-22T03:43:01.434Z,11.20
2018-12-22T03:46:04.898Z,11.13
2018-12-22T03:49:08.357Z,11.12
2018-12-22T03:52:11.829Z,11.14
2018-12-22T03:55:15.383Z,11.15
2018-12-22T03:58:18.847Z,11.21
2018-12-22T04:01:22.254Z,11.17
2018-12-22T04:04:25.669Z,11.19
2018-12-22T04:07:29.113Z,11.24
2018-12-22T04:10:32.598Z,11.23
2018-12-22T04:13:36.530Z,11.16
2018-12-22T04:16:40.077Z,11.17
2018-12-22T04:19:43.494Z,11.12
2018-12-22T04:22:47.073Z,11.10
2018-12-22T04:25:50.575Z,11.16
2018-12-22T04:28:54.013Z,11.22
2018-12-22T04:31:57.472Z,11.30
2018-12-22T04:35:00.993Z,11.32
2018-12-22T04:38:04.664Z,11.30
2018-12-22T04:41:08.202Z,11.31
2018-12-22T04:44:11.735Z,11.23
2018-12-22T04:47:15.436Z,11.22
2018-12-22T04:50:19.047Z,11.25
2018-12-22T04:53:22.587Z,11.33
2018-12-22T04:56:26.257Z,11.34
2018-12-22T04:59:29.743Z,11.31
2018-12-22T05:02:33.338Z,11.19
2018-12-22T05:05:36.931Z,11.23
2018-12-22T05:08:40.445Z,11.14
2018-12-22T05:11:44.455Z,11.12
2018-12-22T05:14:48.031Z,11.04
2018-12-22T05:17:51.682Z,11.08
2018-12-22T05:20:55.308Z,11.05
2018-12-22T05:23:58.977Z,11.03
2018-12-22T05:27:02.545Z,11.12
2018-12-22T05:30:07.364Z,11.11
2018-12-22T05:33:10.924Z,11.04
2018-12-22T05:36:14.525Z,11.06
2018-12-22T05:39:19.125Z,11.02
2018-12-22T05:42:22.816Z,10.89
2018-12-22T05:45:26.360Z,10.86
2018-12-22T05:48:30.183Z,10.94
2018-12-22T05:51:33.674Z,10.99
2018-12-22T05:54:37.262Z,11.07
2018-12-22T05:57:40.892Z,11.22
2018-12-22T06:00:44.511Z,11.26
2018-12-22T06:03:47.986Z,11.24
2018-12-22T06:06:51.518Z,11.13
2018-12-22T06:09:55.062Z,11.12
2018-12-22T06:12:58.573Z,11.07
2018-12-22T06:16:02.150Z,11.05
2018-12-22T06:19:05.742Z,10.99
2018-12-22T06:22:09.315Z,10.92
2018-12-22T06:25:14.019Z,10.88
2018-12-22T06:28:17.537Z,10.95
2018-12-22T06:31:21.081Z,10.94
2018-12-22T06:34:24.705Z,10.96
2018-12-22T06:37:28.179Z,10.95
2018-12-22T06:40:31.778Z,10.94
2018-12-22T06:43:36.291Z,11.01
2018-12-22T06:46:41.416Z,11.00
2018-12-22T06:49:44.918Z,11.03
2018-12-22T06:52:48.436Z,10.96
2018-12-22T06:55:52.017Z,11.05
2018-12-22T06:58:56.680Z,11.13
2018-12-22T07:02:00.538Z,11.22
2018-12-22T07:05:04.137Z,11.14
2018-12-22T07:08:07.719Z,11.15
2018-12-22T07:11:11.289Z,11.16
2018-12-22T07:14:14.923Z,11.14
2018-12-22T07:17:18.551Z,11.00
2018-12-22T07:20:22.117Z,10.97
2018-12-22T07:23:25.733Z,10.99
2018-12-22T07:26:29.293Z,10.91
2018-12-22T07:29:33.928Z,10.86
2018-12-22T07:32:37.542Z,10.89
2018-12-22T07:35:41.078Z,10.91
2018-12-22T07:38:44.659Z,10.85
2018-12-22T07:41:48.271Z,10.85
2018-12-22T07:44:52.847Z,10.80
2018-12-22T07:47:56.435Z,10.83
2018-12-22T07:51:01.028Z,10.93
2018-12-22T07:54:04.645Z,10.98
2018-12-22T07:57:08.190Z,11.00
2018-12-22T08:00:11.774Z,11.00
2018-12-22T08:03:15.424Z,11.04
2018-12-22T08:06:18.873Z,11.11
2018-12-22T08:09:22.863Z,11.14
2018-12-22T08:12:26.394Z,11.27
2018-12-22T08:15:29.999Z,11.25
2018-12-22T08:18:33.492Z,11.31
2018-12-22T08:21:37.145Z,11.26
2018-12-22T08:24:40.783Z,11.19
2018-12-22T08:27:44.310Z,11.16
2018-12-22T08:30:47.834Z,11.21
2018-12-22T08:33:51.534Z,11.21
2018-12-22T08:36:55.122Z,11.23
2018-12-22T08:39:58.644Z,11.21
2018-12-22T08:43:02.579Z,11.19
2018-12-22T08:46:06.270Z,11.22
2018-12-22T08:49:09.822Z,11.24
2018-12-22T08:52:13.395Z,11.34
2018-12-22T08:55:16.963Z,11.39
2018-12-22T08:58:20.638Z,11.46
2018-12-22T09:01:24.071Z,11.52
2018-12-22T09:04:27.662Z,11.55
2018-12-22T09:07:31.289Z,11.60
2018-12-22T09:10:34.916Z,11.58
2018-12-22T09:13:38.689Z,11.63
2018-12-22T09:16:42.321Z,11.65
2018-12-22T09:19:45.854Z,11.62
2018-12-22T09:22:49.312Z,11.58
2018-12-22T09:25:52.831Z,11.63
2018-12-22T09:28:56.302Z,11.67
2018-12-22T09:31:59.924Z,11.72
2018-12-22T09:35:03.582Z,11.77
2018-12-22T09:38:07.017Z,11.72
2018-12-22T09:41:10.669Z,11.76
2018-12-22T09:44:14.126Z,11.78
2018-12-22T09:47:17.759Z,11.81
2018-12-22T09:50:21.331Z,11.84
2018-12-22T09:53:24.741Z,11.84
2018-12-22T09:56:28.344Z,11.88
2018-12-22T09:59:31.726Z,11.88
2018-12-22T10:02:35.142Z,11.85
2018-12-22T10:05:43.385Z,11.79
2018-12-22T10:08:46.845Z,11.82
2018-12-22T10:11:50.294Z,11.80
2018-12-22T10:14:53.853Z,11.79
2018-12-22T10:17:57.276Z,11.74
2018-12-22T10:21:00.757Z,11.68
2018-12-22T10:24:04.205Z,11.74
2018-12-22T10:27:07.999Z,11.72
2018-12-22T10:30:15.946Z,11.72
2018-12-22T10:33:19.420Z,11.69
2018-12-22T10:36:22.994Z,11.68
2018-12-22T10:39:26.428Z,11.70
2018-12-22T10:42:29.905Z,11.74
2018-12-22T10:45:33.397Z,11.76
2018-12-22T10:48:36.835Z,11.73
2018-12-22T10:51:40.285Z,11.74
2018-12-22T10:54:43.692Z,11.72
2018-12-22T10:57:47.091Z,11.70
2018-12-22T11:00:50.511Z,11.78
2018-12-22T11:03:53.998Z,11.67
2018-12-22T11:06:57.467Z,11.55
2018-12-22T11:10:01.173Z,11.43
2018-12-22T11:13:04.731Z,11.33
2018-12-22T11:16:08.329Z,11.28
2018-12-22T11:19:12.833Z,11.20
2018-12-22T11:22:16.227Z,11.06
2018-12-22T11:25:22.509Z,11.01
2018-12-22T11:28:25.979Z,11.09
2018-12-22T11:31:35.024Z,11.12
2018-12-22T11:34:33.078Z,11.15
2018-12-22T11:37:36.596Z,11.19
2018-12-22T11:40:40.001Z,11.36
2018-12-22T11:43:43.387Z,11.52
2018-12-22T11:46:49.081Z,11.61
2018-12-22T11:49:53.353Z,11.59
2018-12-22T11:52:56.824Z,11.62
2018-12-22T11:56:00.415Z,11.58
2018-12-22T11:59:03.908Z,11.53
2018-12-22T12:02:09.861Z,11.47
2018-12-22T12:05:11.510Z,11.45
2018-12-22T12:08:16.888Z,11.44
2018-12-22T12:11:20.266Z,11.39
2018-12-22T12:14:23.692Z,11.38
2018-12-22T12:17:51.225Z,11.52
2018-12-22T12:20:55.641Z,11.68
2018-12-22T12:24:00.472Z,11.94
2018-12-22T12:27:02.680Z,12.04
2018-12-22T12:30:08.817Z,12.13
2018-12-22T12:33:12.211Z,12.30
2018-12-22T12:36:15.675Z,12.30
2018-12-22T12:39:19.212Z,12.26
2018-12-22T12:42:22.619Z,12.23
2018-12-22T12:45:26.197Z,12.09
2018-12-22T12:48:29.672Z,11.98
2018-12-22T12:51:34.112Z,11.98
2018-12-22T12:54:37.557Z,11.84
2018-12-22T12:57:41.880Z,11.73
2018-12-22T13:00:47.088Z,11.71
2018-12-22T13:03:51.179Z,11.57
2018-12-22T13:06:55.077Z,11.57
2018-12-22T13:09:59.043Z,11.53
2018-12-22T13:13:15.131Z,11.55
2018-12-22T13:16:19.023Z,11.57
2018-12-22T13:19:22.868Z,11.55
2018-12-22T13:22:27.116Z,11.51
2018-12-22T13:25:30.891Z,11.53
2018-12-22T13:28:34.933Z,11.56
2018-12-22T13:31:38.874Z,11.51
2018-12-22T13:34:42.462Z,11.55
2018-12-22T13:37:45.949Z,11.56
2018-12-22T13:40:49.546Z,11.58
2018-12-22T13:43:53.267Z,11.56
2018-12-22T13:46:56.833Z,11.54
2018-12-22T13:50:00.787Z,11.52
2018-12-22T13:53:04.331Z,11.48
2018-12-22T13:56:07.922Z,11.43
2018-12-22T13:59:11.401Z,11.43
2018-12-22T14:02:18.299Z,11.44
2018-12-22T14:05:21.283Z,11.37
2018-12-22T14:08:25.078Z,11.35
2018-12-22T14:11:29.619Z,11.30
2018-12-22T14:14:35.869Z,11.32
2018-12-22T14:18:19.895Z,11.36
2018-12-22T14:21:23.588Z,11.32
2018-12-22T14:24:33.926Z,11.28
2018-12-22T14:27:37.525Z,11.24
2018-12-22T14:30:41.172Z,11.09
2018-12-22T14:33:45.501Z,10.97
2018-12-22T14:36:49.139Z,10.97
2018-12-22T14:39:52.769Z,11.02
2018-12-22T14:42:56.344Z,10.93
2018-12-22T14:46:00.223Z,10.89
2018-12-22T14:49:03.765Z,10.81
2018-12-22T14:52:07.380Z,10.83
2018-12-22T14:55:11.065Z,10.94
2018-12-22T14:58:20.193Z,11.06
2018-12-22T15:01:23.870Z,11.13
2018-12-22T15:04:27.489Z,11.18
2018-12-22T15:07:31.013Z,11.20
2018-12-22T15:10:34.546Z,11.18
2018-12-22T15:13:38.293Z,11.20
2018-12-22T15:16:41.827Z,11.17
2018-12-22T15:19:45.425Z,11.18
2018-12-22T15:22:49.076Z,11.16
2018-12-22T15:25:52.674Z,11.14
2018-12-22T15:28:56.248Z,11.15
2018-12-22T15:31:59.887Z,11.13
2018-12-22T15:35:03.367Z,11.05
2018-12-22T15:38:07.056Z,11.07
2018-12-22T15:41:10.782Z,11.06
2018-12-22T15:44:14.301Z,11.08
2018-12-22T15:47:17.911Z,11.10
2018-12-22T15:50:23.329Z,11.07
2018-12-22T15:53:26.925Z,10.99
2018-12-22T15:56:30.563Z,10.94
2018-12-22T15:59:34.457Z,10.82
2018-12-22T16:02:38.628Z,10.79
2018-12-22T16:05:42.465Z,10.83
2018-12-22T16:08:46.334Z,10.80
2018-12-22T16:11:50.091Z,10.76
2018-12-22T16:14:53.690Z,10.76
2018-12-22T16:17:57.627Z,10.70
2018-12-22T16:21:01.212Z,10.67
2018-12-22T16:24:04.860Z,10.65
2018-12-22T16:27:08.442Z,10.68
2018-12-22T16:30:20.346Z,10.72
2018-12-22T16:33:24.004Z,10.75
2018-12-22T16:36:27.816Z,10.74
2018-12-22T16:39:31.449Z,10.76
2018-12-22T16:42:34.980Z,10.76
2018-12-22T16:45:41.635Z,10.83
2018-12-22T16:48:46.698Z,10.86
2018-12-22T16:51:50.403Z,10.86
2018-12-22T16:54:54.269Z,10.86
2018-12-22T16:58:05.283Z,10.86
2018-12-22T17:02:25.845Z,10.79
2018-12-22T17:05:29.969Z,10.67
2018-12-22T17:08:34.350Z,10.67
2018-12-22T17:11:38.097Z,10.66
2018-12-22T17:14:42.015Z,10.65
2018-12-22T17:17:46.363Z,10.65
2018-12-22T17:20:54.789Z,10.69
2018-12-22T17:24:09.567Z,10.68
2018-12-22T17:27:13.204Z,10.63
2018-12-22T17:30:16.821Z,10.65
2018-12-22T17:33:20.663Z,10.63
2018-12-22T17:36:25.483Z,10.66
2018-12-22T17:39:36.559Z,10.67
2018-12-22T17:42:32.114Z,10.68
2018-12-22T17:45:35.861Z,10.66
2018-12-22T17:48:39.470Z,10.65
2018-12-22T17:51:43.027Z,10.63
2018-12-22T17:54:46.487Z,10.65
2018-12-22T17:57:50.086Z,10.67
2018-12-22T18:00:53.508Z,10.64
2018-12-22T18:03:56.954Z,10.65
2018-12-22T18:07:00.507Z,10.59
2018-12-22T18:10:04.321Z,10.57
2018-12-22T18:13:07.822Z,10.52
2018-12-22T18:16:11.205Z,10.51
2018-12-22T18:19:15.033Z,10.47
2018-12-22T18:22:18.512Z,10.50
2018-12-22T18:25:22.112Z,10.41
2018-12-22T18:28:26.794Z,10.37
2018-12-22T18:31:30.277Z,10.37
2018-12-22T18:34:33.971Z,10.30
2018-12-22T18:37:37.386Z,10.22
2018-12-22T18:40:41.921Z,10.24
2018-12-22T18:43:45.622Z,10.22
2018-12-22T18:46:49.047Z,10.18
2018-12-22T18:49:52.423Z,10.17
2018-12-22T18:52:55.897Z,10.14
2018-12-22T18:55:59.450Z,10.12
2018-12-22T18:59:02.976Z,10.09
2018-12-22T19:02:06.649Z,10.12
2018-12-22T19:05:10.223Z,10.15
2018-12-22T19:08:15.644Z,10.13
2018-12-22T19:11:21.360Z,10.15
2018-12-22T19:14:24.810Z,10.16
2018-12-22T19:17:28.339Z,10.18
2018-12-22T19:20:51.618Z,10.13
2018-12-22T19:23:55.119Z,10.15
2018-12-22T19:26:58.726Z,10.16
2018-12-22T19:30:02.538Z,10.17
2018-12-22T19:33:06.368Z,10.16
2018-12-22T19:36:09.913Z,10.10
2018-12-22T19:39:13.755Z,10.09
2018-12-22T19:42:17.291Z,10.09
2018-12-22T19:45:21.027Z,10.11
2018-12-22T19:48:24.652Z,10.10
2018-12-22T19:51:28.366Z,10.08
2018-12-22T19:54:32.286Z,10.07
2018-12-22T19:57:35.673Z,10.08
2018-12-22T20:00:39.289Z,10.10
2018-12-22T20:03:42.777Z,10.08
2018-12-22T20:06:46.463Z,10.08
2018-12-22T20:09:49.861Z,10.10
2018-12-22T20:12:53.477Z,10.23
2018-12-22T20:15:57.135Z,10.26
2018-12-22T20:19:00.616Z,10.19
2018-12-22T20:22:04.124Z,10.17
2018-12-22T20:25:07.713Z,10.21
2018-12-22T20:28:11.662Z,10.25
2018-12-22T20:31:15.223Z,10.28
2018-12-22T20:34:18.865Z,10.33
2018-12-22T20:37:22.607Z,10.27
2018-12-22T20:40:26.214Z,10.29
2018-12-22T20:43:29.945Z,10.19
2018-12-22T20:46:33.478Z,10.14
2018-12-22T20:49:37.063Z,10.18
2018-12-22T20:52:40.556Z,10.09
2018-12-22T20:55:44.434Z,10.02
2018-12-22T20:58:47.764Z,9.93
2018-12-22T21:01:51.404Z,9.89
2018-12-22T21:04:55.046Z,9.81
2018-12-22T21:07:58.592Z,9.77
2018-12-22T21:11:02.104Z,9.74
2018-12-22T21:14:05.717Z,9.69
2018-12-22T21:17:09.296Z,9.70
2018-12-22T21:20:12.783Z,9.68
2018-12-22T21:23:16.296Z,9.69
2018-12-22T21:26:19.763Z,9.69
2018-12-22T21:29:23.417Z,9.70
2018-12-22T21:32:27.544Z,9.66
2018-12-22T21:35:31.456Z,9.66
2018-12-22T21:38:34.977Z,9.67
2018-12-22T21:41:38.435Z,9.75
2018-12-22T21:44:41.850Z,9.72
2018-12-22T21:47:45.539Z,9.74
2018-12-22T21:50:48.954Z,9.77
2018-12-22T21:53:52.467Z,9.82
2018-12-22T21:56:56.070Z,9.83
2018-12-22T21:59:59.586Z,9.81
2018-12-22T22:03:03.365Z,9.80
2018-12-22T22:06:06.780Z,9.81
2018-12-22T22:09:10.286Z,9.87
2018-12-22T22:12:13.913Z,9.85
2018-12-22T22:15:18.109Z,9.82
2018-12-22T22:18:21.506Z,9.79
2018-12-22T22:21:25.002Z,9.73
2018-12-22T22:24:28.502Z,9.66
2018-12-22T22:27:32.017Z,9.74
2018-12-22T22:30:35.440Z,9.68
2018-12-22T22:33:39.016Z,9.67
2018-12-22T22:36:42.630Z,9.66
2018-12-22T22:39:46.034Z,9.64
2018-12-22T22:42:49.637Z,9.63
2018-12-22T22:45:53.359Z,9.69
2018-12-22T22:48:56.850Z,9.83
2018-12-22T22:52:00.645Z,9.87
2018-12-22T22:55:04.456Z,9.97
2018-12-22T22:58:07.950Z,9.99
2018-12-22T23:01:11.538Z,10.12
2018-12-22T23:04:17.213Z,10.08
2018-12-22T23:07:20.633Z,10.16
2018-12-22T23:10:25.569Z,10.15
2018-12-22T23:13:29.128Z,10.15
2018-12-22T23:16:33.238Z,10.11
2018-12-22T23:19:36.833Z,10.15
2018-12-22T23:22:42.835Z,10.15
2018-12-22T23:25:46.470Z,10.11
2018-12-22T23:28:51.301Z,10.08
2018-12-22T23:31:55.087Z,10.07
2018-12-22T23:35:03.124Z,10.04
2018-12-22T23:38:05.768Z,10.09
2018-12-22T23:41:09.333Z,10.06
2018-12-22T23:44:12.838Z,10.03
2018-12-22T23:47:16.412Z,10.00
2018-12-22T23:50:20.042Z,9.88
2018-12-22T23:53:23.602Z,9.81
2018-12-22T23:56:27.046Z,9.80
2018-12-22T23:59:30.520Z,9.77
